Rzeszow, Poland

5:45 PM CEST on July 31, 2014 (GMT +0200)
Rzeszow (IPODKARP17) Elev 705 ft | 50.07 °N, 21.97 °E | Change Station

Current weather conditions updated 4 minutes ago

Overcast
Overcast
77.9 °F
Feels Like 80 °F
N
5.7
Wind Variable Wind from SSE
Gusts 15.2 mph

Tomorrow is forecast to be Cooler than today.

Today
High -- | Low -- °F
--% Chance of Precip.
Yesterday
High -- | Low -- °F
Precip. -- in
4:59 AM 8:16 PM
Waxing Crescent, 19% visible
Pressure 29.86 in
Visibility 6.2 miles
Clouds Mostly Cloudy 3000 ft
Heat Index 80 °F
Dew Point 71 °F
Humidity 80%
Rainfall 0.00 in
Snow Depth Not available.
UV 1 out of 12
Pollen Not available.
Air Quality Not available.
Flu Activity Not available.
METAR EPRZ 311530Z 19011KT 9999 TS BKN030CB 25/19 Q1011

More Conditions Fewer Conditions

Pressure 29.86 in
Visibility 6.2 miles
Clouds Mostly Cloudy 3000 ft
Heat Index 80 °F
Dew Point 71 °F
Humidity 80%
Rainfall 0.00 in
Snow Depth Not available.
UV 1 out of 12
Pollen Not available.
Air Quality Not available.
Flu Activity Not available.
METAR EPRZ 311530Z 19011KT 9999 TS BKN030CB 25/19 Q1011

More Conditions Fewer Conditions

10-Day Weather Forecast

Almanac

Astronomy

Jul. 31, 2014 Rise Set
Actual Time 4:59 AM CEST 8:16 PM CEST
Civil Twilight 4:19 AM CEST 8:55 PM CEST
Nautical Twilight 3:28 AM CEST 9:46 PM CEST
Astronomical Twilight 2:19 AM CEST 10:53 PM CEST
Moon 9:39 AM CEST 9:46 PM CEST
Length of Visible Light 16h 35m
Length of Day
15h 17m
Tomorrow will be 2m 56s shorter.
Waxing Crescent, 19% of the Moon is Illuminated
Today
Waxing Crescent
Aug 3
First Quarter
Aug 10
Full
Aug 17
Last Quarter
Aug 25
New

Today's Extremes

Country Highs Country Lows

Community

WunderPhotos

Upload Photos

1,739,359 photos uploaded!

Nearby

Snow Depth

Not available.

Earthquake Activity

City Distance Mag. Time & Date
No recent earthquake activity has been reported nearby.
Minimum magnitude displayed is 2.5.

Coastal Water Temperatures

Place Temperature
No Stations Reporting

Nearby Weather Stations

Station Location Temp. Heat Index Dew Point Humidity Wind Precip. Elev Updated Type
Rzeszow, Rzeszow 77.9 °F 80 °F 71 °F 80% SSE  at  5.7 mph 0.00 in / hr 705 ft 5:40 PM CEST Normal
Podkarpackie, Rzeszów 79.2 °F 81 °F 66 °F 63% East  at  - - / hr 666 ft 5:41 PM CEST Normal
Rzeszow, Drabinianka, Rzeszów 74.7 °F 77 °F 53 °F 39% North  at  - - / hr 659 ft 5:45 PM CEST Normal
Hermanowa - Tyczyn, HERMANOWA 71.1 °F 71 °F 65 °F 82% East  at  1.0 mph 0.01 in / hr 860 ft 5:41 PM CEST Normal
Lezajsk, Wojew�dztwo Podkarpackie 81.4 °F 84 °F 68 °F 64% West  at  5.0 mph 0.00 in / hr 568 ft 5:45 PM CEST Normal

Show More Stations Show Fewer Stations